createdAt,value
2023-02-19T00:01:44.433Z,99874.03
2023-02-19T00:04:16.483Z,99842.44
2023-02-19T00:06:44.230Z,99839.28
2023-02-19T00:09:12.959Z,99838.28
2023-02-19T00:11:39.858Z,99832.16
2023-02-19T00:14:06.767Z,99856.63
2023-02-19T00:16:39.297Z,99836.09
2023-02-19T00:19:08.659Z,99833.63
2023-02-19T00:21:35.032Z,99826.69
2023-02-19T00:24:03.680Z,99838.28
2023-02-19T00:26:31.639Z,99840.41
2023-02-19T00:28:58.622Z,99833.38
2023-02-19T00:31:33.839Z,99830.84
2023-02-19T00:34:03.163Z,99825.41
2023-02-19T00:36:30.682Z,99839.13
2023-02-19T00:38:57.330Z,99818.09
2023-02-19T00:41:24.327Z,99824.03
2023-02-19T00:43:57.586Z,99835.25
2023-02-19T00:46:26.802Z,99826.66
2023-02-19T00:48:53.404Z,99818.16
2023-02-19T00:51:21.868Z,99818.66
2023-02-19T00:53:48.417Z,99812.34
2023-02-19T00:56:16.017Z,99815.31
2023-02-19T00:58:42.705Z,99808.06
2023-02-19T01:01:09.472Z,99808.88
2023-02-19T01:03:36.877Z,99816.31
2023-02-19T01:06:04.700Z,99797.56
2023-02-19T01:08:31.456Z,99800.06
2023-02-19T01:10:58.555Z,99793.75
2023-02-19T01:13:25.058Z,99786.81
2023-02-19T01:15:51.457Z,99778.72
2023-02-19T01:18:17.830Z,99780.50
2023-02-19T01:20:44.947Z,99786.97
2023-02-19T01:23:12.729Z,99773.56
2023-02-19T01:25:40.059Z,99777.22
2023-02-19T01:28:06.639Z,99767.81
2023-02-19T01:30:37.311Z,99762.16
2023-02-19T01:33:08.053Z,99767.97
2023-02-19T01:35:38.113Z,99744.69
2023-02-19T01:38:04.679Z,99741.72
2023-02-19T01:40:31.046Z,99741.72
2023-02-19T01:42:57.401Z,99734.72
2023-02-19T01:45:25.659Z,99730.06
2023-02-19T01:48:04.405Z,99722.44
2023-02-19T01:50:35.327Z,99730.53
2023-02-19T01:53:05.347Z,99728.47
2023-02-19T01:55:32.932Z,99731.81
2023-02-19T01:58:01.693Z,99733.25
2023-02-19T02:00:28.368Z,99724.28
2023-02-19T02:02:57.885Z,99717.38
2023-02-19T02:05:41.499Z,99716.72
2023-02-19T02:08:27.154Z,99717.69
2023-02-19T02:10:54.904Z,99704.34
2023-02-19T02:13:21.598Z,99709.97
2023-02-19T02:15:55.065Z,99703.69
2023-02-19T02:18:52.712Z,99699.69
2023-02-19T02:21:28.098Z,99704.97
2023-02-19T02:24:24.195Z,99690.72
2023-02-19T02:27:15.207Z,99687.75
2023-02-19T02:30:17.525Z,99694.69
2023-02-19T02:32:54.348Z,99696.31
2023-02-19T02:35:25.602Z,99693.97
2023-02-19T02:37:56.342Z,99684.53
2023-02-19T02:40:23.403Z,99674.78
2023-02-19T02:42:49.756Z,99673.81
2023-02-19T02:45:37.995Z,99684.00
2023-02-19T02:48:10.476Z,99672.00
2023-02-19T02:50:42.969Z,99680.84
2023-02-19T02:53:36.193Z,99679.03
2023-02-19T02:56:03.859Z,99671.09
2023-02-19T02:58:33.522Z,99665.13
2023-02-19T03:01:21.120Z,99657.50
2023-02-19T03:03:53.497Z,99651.16
2023-02-19T03:06:23.490Z,99647.91
2023-02-19T03:09:08.538Z,99653.81
2023-02-19T03:11:57.190Z,99647.66
2023-02-19T03:14:50.604Z,99646.19
2023-02-19T03:17:57.970Z,99634.59
2023-02-19T03:20:25.015Z,99637.69
2023-02-19T03:22:52.796Z,99633.28
2023-02-19T03:25:42.409Z,99625.78
2023-02-19T03:28:12.303Z,99624.84
2023-02-19T03:30:45.190Z,99618.22
2023-02-19T03:33:15.825Z,99619.38
2023-02-19T03:35:47.362Z,99616.84
2023-02-19T03:38:27.745Z,99619.06
2023-02-19T03:41:10.533Z,99616.34
2023-02-19T03:43:45.258Z,99610.06
2023-02-19T03:46:23.376Z,99619.06
2023-02-19T03:49:03.706Z,99609.78
2023-02-19T03:51:39.110Z,99614.06
2023-02-19T03:54:32.668Z,99598.53
2023-02-19T03:57:18.633Z,99598.22
2023-02-19T04:00:05.555Z,99587.56
2023-02-19T04:02:41.996Z,99585.22
2023-02-19T04:05:18.547Z,99586.75
2023-02-19T04:07:48.824Z,99574.97
2023-02-19T04:10:17.761Z,99588.88
2023-02-19T04:12:50.233Z,99578.50
2023-02-19T04:15:23.257Z,99590.50
2023-02-19T04:18:00.305Z,99574.81
2023-02-19T04:20:30.362Z,99573.16
2023-02-19T04:22:57.573Z,99571.19
2023-02-19T04:25:26.126Z,99571.63
2023-02-19T04:27:53.041Z,99570.50
2023-02-19T04:30:19.602Z,99582.50
2023-02-19T04:32:46.032Z,99570.28
2023-02-19T04:35:12.396Z,99576.25
2023-02-19T04:37:39.002Z,99565.00
2023-02-19T04:40:05.833Z,99554.06
2023-02-19T04:42:32.299Z,99568.41
2023-02-19T04:44:58.749Z,99552.41
2023-02-19T04:47:25.199Z,99549.47
2023-02-19T04:49:51.831Z,99546.13
2023-02-19T04:52:18.198Z,99540.47
2023-02-19T04:54:44.566Z,99536.34
2023-02-19T04:57:11.188Z,99542.16
2023-02-19T04:59:37.541Z,99552.03
2023-02-19T05:02:03.929Z,99551.41
2023-02-19T05:04:30.383Z,99551.41
2023-02-19T05:06:56.963Z,99555.34
2023-02-19T05:09:23.520Z,99549.00
2023-02-19T05:11:49.857Z,99563.38
2023-02-19T05:14:17.139Z,99574.69
2023-02-19T05:16:43.529Z,99592.34
2023-02-19T05:19:13.596Z,99585.56
2023-02-19T05:21:40.598Z,99579.28
2023-02-19T05:24:07.237Z,99594.19
2023-02-19T05:26:33.972Z,99574.38
2023-02-19T05:29:01.476Z,99579.38
2023-02-19T05:31:28.051Z,99556.09
2023-02-19T05:33:57.416Z,99557.00
2023-02-19T05:36:24.135Z,99581.47
2023-02-19T05:38:57.007Z,99571.50
2023-02-19T05:41:26.603Z,99602.16
2023-02-19T05:43:53.791Z,99579.88
2023-02-19T05:46:22.916Z,99597.47
2023-02-19T05:48:51.046Z,99574.69
2023-02-19T05:51:20.625Z,99582.22
2023-02-19T05:53:47.645Z,99568.41
2023-02-19T05:56:27.321Z,99572.19
2023-02-19T05:58:54.971Z,99571.97
2023-02-19T06:01:24.769Z,99591.44
2023-02-19T06:03:51.475Z,99601.72
2023-02-19T06:06:19.488Z,99607.38
2023-02-19T06:08:47.609Z,99592.19
2023-02-19T06:11:14.573Z,99598.84
2023-02-19T06:13:41.054Z,99613.03
2023-02-19T06:16:08.689Z,99616.34
2023-02-19T06:18:35.528Z,99610.78
2023-02-19T06:21:03.204Z,99608.13
2023-02-19T06:23:30.364Z,99609.63
2023-02-19T06:26:07.253Z,99612.13
2023-02-19T06:28:33.640Z,99631.91
2023-02-19T06:31:00.050Z,99630.09
2023-02-19T06:33:27.816Z,99617.41
2023-02-19T06:35:54.638Z,99628.97
2023-02-19T06:38:22.014Z,99636.88
2023-02-19T06:40:48.372Z,99631.31
2023-02-19T06:43:14.761Z,99641.88
2023-02-19T06:45:41.140Z,99640.44
2023-02-19T06:48:07.482Z,99648.81
2023-02-19T06:50:34.005Z,99646.84
2023-02-19T06:53:00.377Z,99634.56
2023-02-19T06:55:26.932Z,99661.13
2023-02-19T06:57:53.431Z,99653.34
2023-02-19T07:00:19.943Z,99668.50
2023-02-19T07:02:46.299Z,99651.41
2023-02-19T07:05:12.639Z,99654.34
2023-02-19T07:07:38.985Z,99662.25
2023-02-19T07:10:05.757Z,99667.00
2023-02-19T07:12:32.149Z,99669.94
2023-02-19T07:14:58.493Z,99699.56
2023-02-19T07:17:24.817Z,99683.00
2023-02-19T07:19:51.483Z,99686.94
2023-02-19T07:22:19.048Z,99697.09
2023-02-19T07:24:47.972Z,99687.38
2023-02-19T07:27:14.503Z,99690.44
2023-02-19T07:29:40.914Z,99711.56
2023-02-19T07:32:07.325Z,99709.91
2023-02-19T07:34:33.714Z,99727.16
2023-02-19T07:37:00.092Z,99746.50
2023-02-19T07:39:26.538Z,99745.31
2023-02-19T07:41:52.913Z,99767.47
2023-02-19T07:44:19.268Z,99756.28
2023-02-19T07:46:45.677Z,99762.13
2023-02-19T07:49:12.029Z,99789.75
2023-02-19T07:51:39.852Z,99783.25
2023-02-19T07:54:06.445Z,99797.09
2023-02-19T07:56:32.794Z,99790.44
2023-02-19T07:59:00.344Z,99804.72
2023-02-19T08:01:45.568Z,99803.16
2023-02-19T08:04:14.455Z,99807.84
2023-02-19T08:06:41.750Z,99823.38
2023-02-19T08:09:08.794Z,99820.44
2023-02-19T08:11:53.818Z,99838.88
2023-02-19T08:14:23.877Z,99841.78
2023-02-19T08:16:51.286Z,99838.69
2023-02-19T08:19:18.305Z,99847.41
2023-02-19T08:21:44.673Z,99843.94
2023-02-19T08:24:11.062Z,99851.81
2023-02-19T08:26:37.837Z,99863.44
2023-02-19T08:29:05.450Z,99873.63
2023-02-19T08:31:33.416Z,99890.91
2023-02-19T08:33:59.989Z,99916.84
2023-02-19T08:36:26.349Z,99914.47
2023-02-19T08:38:52.702Z,99923.38
2023-02-19T08:41:19.023Z,99916.50
2023-02-19T08:43:45.451Z,99923.81
2023-02-19T08:46:13.300Z,99928.28
2023-02-19T08:48:40.569Z,99951.50
2023-02-19T08:51:10.022Z,99965.63
2023-02-19T08:53:38.571Z,99994.91
2023-02-19T08:56:13.970Z,99978.53
2023-02-19T08:58:40.602Z,99987.63
2023-02-19T09:01:11.999Z,99987.66
2023-02-19T09:03:39.101Z,100002.44
2023-02-19T09:06:05.741Z,100015.16
2023-02-19T09:08:32.157Z,100050.75
2023-02-19T09:11:03.564Z,100038.81
2023-02-19T09:13:30.050Z,100027.69
2023-02-19T09:15:57.082Z,100043.81
2023-02-19T09:18:24.428Z,100067.94
2023-02-19T09:20:50.953Z,100070.44
2023-02-19T09:23:17.274Z,100062.28
2023-02-19T09:25:43.748Z,100064.69
2023-02-19T09:28:10.160Z,100093.69
2023-02-19T09:30:36.581Z,100110.50
2023-02-19T09:33:05.524Z,100105.84
2023-02-19T09:35:31.884Z,100107.72
2023-02-19T09:38:00.588Z,100118.22
2023-02-19T09:40:27.012Z,100119.78
2023-02-19T09:42:53.363Z,100144.75
2023-02-19T09:45:23.944Z,100135.66
2023-02-19T09:47:54.401Z,100152.84
2023-02-19T09:50:24.300Z,100146.41
2023-02-19T09:52:58.170Z,100150.47
2023-02-19T09:55:38.968Z,100156.44
2023-02-19T09:58:25.605Z,100164.56
2023-02-19T10:00:53.585Z,100164.31
2023-02-19T10:03:41.191Z,100170.56
2023-02-19T10:06:21.726Z,100173.03
2023-02-19T10:08:50.920Z,100174.84
2023-02-19T10:11:18.467Z,100177.22
2023-02-19T10:14:01.545Z,100193.44
2023-02-19T10:16:29.239Z,100186.97
2023-02-19T10:18:56.509Z,100197.34
2023-02-19T10:21:27.247Z,100203.03
2023-02-19T10:23:57.786Z,100203.13
2023-02-19T10:26:24.548Z,100200.84
2023-02-19T10:28:50.919Z,100213.63
2023-02-19T10:31:21.217Z,100204.97
2023-02-19T10:34:01.995Z,100217.13
2023-02-19T10:36:32.623Z,100209.53
2023-02-19T10:39:01.117Z,100226.94
2023-02-19T10:41:28.595Z,100224.81
2023-02-19T10:44:07.738Z,100241.28
2023-02-19T10:46:37.246Z,100236.88
2023-02-19T10:49:16.975Z,100242.13
2023-02-19T10:51:43.954Z,100242.03
2023-02-19T10:54:20.668Z,100248.84
2023-02-19T10:56:47.065Z,100245.44
2023-02-19T10:59:19.297Z,100251.25
2023-02-19T11:02:03.224Z,100251.75
2023-02-19T11:04:35.473Z,100256.88
2023-02-19T11:07:16.878Z,100258.41
2023-02-19T11:09:46.297Z,100261.31
2023-02-19T11:12:25.660Z,100266.56
2023-02-19T11:14:52.011Z,100260.25
2023-02-19T11:17:27.096Z,100269.94
2023-02-19T11:20:07.489Z,100281.22
2023-02-19T11:22:39.002Z,100280.69
2023-02-19T11:25:19.951Z,100288.34
2023-02-19T11:28:22.714Z,100289.53
2023-02-19T11:30:49.055Z,100291.66
2023-02-19T11:33:24.451Z,100298.63
2023-02-19T11:35:55.222Z,100323.72
2023-02-19T11:38:21.794Z,100297.44
2023-02-19T11:40:55.716Z,100299.91
2023-02-19T11:43:48.658Z,100314.63
2023-02-19T11:46:24.193Z,100314.63
2023-02-19T11:49:21.209Z,100324.47
2023-02-19T11:52:19.556Z,100337.44
2023-02-19T11:55:01.220Z,100322.75
2023-02-19T11:57:39.668Z,100308.44
2023-02-19T12:00:26.233Z,100312.00
2023-02-19T12:03:16.460Z,100315.53
2023-02-19T12:05:48.656Z,100326.22
2023-02-19T12:08:44.503Z,100336.75
2023-02-19T12:11:53.492Z,100347.81
2023-02-19T12:14:46.989Z,100372.69
2023-02-19T12:17:47.736Z,100345.34
2023-02-19T12:20:26.056Z,100358.72
2023-02-19T12:23:20.452Z,100367.81
2023-02-19T12:25:57.683Z,100359.78
2023-02-19T12:28:29.736Z,100351.69
2023-02-19T12:31:09.398Z,100362.09
2023-02-19T12:33:47.880Z,100361.63
2023-02-19T12:36:19.395Z,100350.00
2023-02-19T12:39:10.367Z,100360.00
2023-02-19T12:44:21.911Z,100350.38
2023-02-19T12:46:56.563Z,100352.28
2023-02-19T12:49:48.110Z,100354.69
2023-02-19T12:52:26.538Z,100346.31
2023-02-19T12:54:56.175Z,100355.41
2023-02-19T12:57:36.868Z,100372.28
2023-02-19T13:00:30.719Z,100355.16
2023-02-19T13:03:05.931Z,100347.97
2023-02-19T13:05:55.677Z,100345.56
2023-02-19T13:08:34.105Z,100348.69
2023-02-19T13:11:10.743Z,100360.66
2023-02-19T13:13:48.471Z,100385.69
2023-02-19T13:16:19.035Z,100395.59
2023-02-19T13:18:52.093Z,100379.72
2023-02-19T13:21:40.150Z,100400.84
2023-02-19T13:24:14.620Z,100377.63
2023-02-19T13:27:05.302Z,100364.22
2023-02-19T13:29:58.122Z,100396.97
2023-02-19T13:32:49.109Z,100379.38
2023-02-19T13:35:25.222Z,100376.91
2023-02-19T13:37:54.586Z,100389.13
2023-02-19T13:40:33.178Z,100385.53
2023-02-19T13:43:05.563Z,100392.47
2023-02-19T13:45:41.184Z,100383.63
2023-02-19T13:48:31.725Z,100402.06
2023-02-19T13:51:16.894Z,100392.00
2023-02-19T13:53:44.535Z,100395.81
2023-02-19T13:56:29.439Z,100392.88
2023-02-19T13:59:13.023Z,100393.47
2023-02-19T14:01:51.658Z,100387.97
2023-02-19T14:04:44.299Z,100406.91
2023-02-19T14:07:10.593Z,100390.53
2023-02-19T14:09:45.911Z,100391.84
2023-02-19T14:12:16.279Z,100400.94
2023-02-19T14:14:47.461Z,100390.41
2023-02-19T14:17:39.201Z,100411.84
2023-02-19T14:20:08.532Z,100411.38
2023-02-19T14:22:52.067Z,100413.09
2023-02-19T14:25:28.626Z,100431.41
2023-02-19T14:28:17.818Z,100410.59
2023-02-19T14:30:53.781Z,100410.91
2023-02-19T14:33:43.340Z,100423.75
2023-02-19T14:36:29.670Z,100430.72
2023-02-19T14:39:02.619Z,100450.34
2023-02-19T14:41:33.626Z,100429.97
2023-02-19T14:44:02.800Z,100424.72
2023-02-19T14:46:43.956Z,100444.56
2023-02-19T14:49:25.449Z,100429.50
2023-02-19T14:51:56.604Z,100443.19
2023-02-19T14:54:36.865Z,100438.88
2023-02-19T14:57:04.915Z,100437.06
2023-02-19T14:59:31.344Z,100457.06
2023-02-19T15:02:13.128Z,100442.94
2023-02-19T15:04:40.244Z,100454.44
2023-02-19T15:07:10.226Z,100460.09
2023-02-19T15:09:44.211Z,100461.63
2023-02-19T15:12:17.125Z,100477.91
2023-02-19T15:14:45.374Z,100468.56
2023-02-19T15:17:20.542Z,100461.13
2023-02-19T15:19:46.977Z,100485.78
2023-02-19T15:22:19.716Z,100464.47
2023-02-19T15:24:48.489Z,100472.13
2023-02-19T15:27:19.877Z,100473.91
2023-02-19T15:29:53.215Z,100463.47
2023-02-19T15:32:26.751Z,100469.06
2023-02-19T15:34:58.426Z,100479.28
2023-02-19T15:37:28.183Z,100477.28
2023-02-19T15:39:55.619Z,100474.56
2023-02-19T15:42:28.324Z,100473.97
2023-02-19T15:45:03.990Z,100484.41
2023-02-19T15:47:49.785Z,100489.94
2023-02-19T15:50:28.516Z,100493.28
2023-02-19T15:53:14.519Z,100491.56
2023-02-19T15:55:45.423Z,100494.78
2023-02-19T15:58:23.462Z,100504.53
2023-02-19T16:00:53.129Z,100489.19
2023-02-19T16:03:22.084Z,100496.16
2023-02-19T16:06:10.553Z,100498.72
2023-02-19T16:08:45.661Z,100502.50
2023-02-19T16:11:24.203Z,100514.13
2023-02-19T16:13:51.758Z,100499.63
2023-02-19T16:16:27.154Z,100513.94
2023-02-19T16:18:53.999Z,100500.06
2023-02-19T16:21:23.311Z,100504.69
2023-02-19T16:23:54.747Z,100497.75
2023-02-19T16:26:21.639Z,100501.50
2023-02-19T16:28:52.434Z,100503.69
2023-02-19T16:31:21.632Z,100498.28
2023-02-19T16:33:49.945Z,100504.84
2023-02-19T16:36:22.681Z,100505.91
2023-02-19T16:38:58.984Z,100518.09
2023-02-19T16:41:25.382Z,100524.53
2023-02-19T16:43:51.737Z,100551.06
2023-02-19T16:46:18.141Z,100554.59
2023-02-19T16:48:44.569Z,100555.78
2023-02-19T16:51:25.227Z,100561.34
2023-02-19T16:53:51.614Z,100564.81
2023-02-19T16:56:22.687Z,100561.25
2023-02-19T16:58:50.170Z,100575.53
2023-02-19T17:01:17.128Z,100583.03
2023-02-19T17:03:45.010Z,100594.25
2023-02-19T17:06:12.187Z,100593.94
2023-02-19T17:08:42.231Z,100595.84
2023-02-19T17:11:14.635Z,100611.41
2023-02-19T17:13:42.333Z,100608.03
2023-02-19T17:16:16.923Z,100625.69
2023-02-19T17:18:43.345Z,100611.41
2023-02-19T17:21:35.984Z,100619.59
2023-02-19T17:24:03.603Z,100613.94
2023-02-19T17:26:31.788Z,100607.22
2023-02-19T17:28:59.705Z,100624.44
2023-02-19T17:31:26.994Z,100621.06
2023-02-19T17:33:53.855Z,100632.97
2023-02-19T17:36:23.703Z,100640.84
2023-02-19T17:38:50.235Z,100634.84
2023-02-19T17:41:16.713Z,100631.59
2023-02-19T17:43:44.380Z,100634.22
2023-02-19T17:46:15.759Z,100656.81
2023-02-19T17:48:42.249Z,100649.78
2023-02-19T17:51:08.678Z,100651.56
2023-02-19T17:53:35.032Z,100652.59
2023-02-19T17:56:01.763Z,100655.31
2023-02-19T17:58:28.132Z,100660.56
2023-02-19T18:00:54.555Z,100664.38
2023-02-19T18:03:20.912Z,100661.88
2023-02-19T18:05:47.341Z,100664.56
2023-02-19T18:08:14.045Z,100659.31
2023-02-19T18:10:40.471Z,100662.16
2023-02-19T18:13:06.922Z,100663.00
2023-02-19T18:15:33.453Z,100673.81
2023-02-19T18:17:59.863Z,100685.56
2023-02-19T18:20:28.508Z,100689.53
2023-02-19T18:22:56.399Z,100681.69
2023-02-19T18:25:23.671Z,100686.31
2023-02-19T18:27:50.765Z,100686.06
2023-02-19T18:30:19.198Z,100691.75
2023-02-19T18:32:48.527Z,100688.97
2023-02-19T18:35:16.774Z,100695.16
2023-02-19T18:37:43.154Z,100696.84
2023-02-19T18:40:10.422Z,100694.22
2023-02-19T18:42:36.779Z,100696.13
2023-02-19T18:45:03.962Z,100700.78
2023-02-19T18:47:30.560Z,100696.13
2023-02-19T18:49:58.474Z,100698.75
2023-02-19T18:52:26.331Z,100697.78
2023-02-19T18:54:55.048Z,100695.31
2023-02-19T18:57:22.813Z,100696.50
2023-02-19T18:59:49.301Z,100698.56
2023-02-19T19:02:17.159Z,100700.44
2023-02-19T19:04:43.521Z,100696.50
2023-02-19T19:07:10.782Z,100688.06
2023-02-19T19:09:37.143Z,100703.25
2023-02-19T19:12:03.791Z,100686.59
2023-02-19T19:14:30.365Z,100695.19
2023-02-19T19:16:56.872Z,100697.25
2023-02-19T19:19:23.256Z,100704.41
2023-02-19T19:21:58.129Z,100699.16
2023-02-19T19:24:25.152Z,100704.59
2023-02-19T19:26:52.840Z,100717.16
2023-02-19T19:29:21.973Z,100712.16
2023-02-19T19:31:49.206Z,100707.94
2023-02-19T19:34:16.316Z,100703.09
2023-02-19T19:36:42.783Z,100707.50
2023-02-19T19:39:09.328Z,100711.16
2023-02-19T19:41:35.915Z,100701.59
2023-02-19T19:44:04.466Z,100706.38
2023-02-19T19:46:31.043Z,100719.03
2023-02-19T19:48:57.446Z,100711.44
2023-02-19T19:51:24.112Z,100722.03
2023-02-19T19:53:50.481Z,100722.22
2023-02-19T19:56:17.462Z,100711.06
2023-02-19T19:58:43.803Z,100705.19
2023-02-19T20:01:10.576Z,100713.50
2023-02-19T20:03:37.959Z,100710.63
2023-02-19T20:06:04.697Z,100713.25
2023-02-19T20:08:31.066Z,100721.50
2023-02-19T20:10:57.438Z,100715.69
2023-02-19T20:13:24.689Z,100710.50
2023-02-19T20:15:53.987Z,100713.25
2023-02-19T20:18:21.446Z,100708.19
2023-02-19T20:20:47.847Z,100706.66
2023-02-19T20:23:14.217Z,100713.97
2023-02-19T20:25:40.572Z,100706.09
2023-02-19T20:28:06.959Z,100708.19
2023-02-19T20:30:33.402Z,100709.22
2023-02-19T20:32:59.941Z,100712.94
2023-02-19T20:35:28.579Z,100709.47
2023-02-19T20:37:55.573Z,100700.59
2023-02-19T20:40:27.222Z,100696.75
2023-02-19T20:42:53.865Z,100694.88
2023-02-19T20:45:20.304Z,100707.59
2023-02-19T20:47:46.757Z,100701.91
2023-02-19T20:50:13.339Z,100706.78
2023-02-19T20:52:39.692Z,100707.78
2023-02-19T20:55:06.610Z,100715.47
2023-02-19T20:57:33.280Z,100722.94
2023-02-19T20:59:59.635Z,100725.75
2023-02-19T21:02:29.374Z,100731.38
2023-02-19T21:04:56.648Z,100730.72
2023-02-19T21:07:24.422Z,100736.59
2023-02-19T21:09:52.003Z,100744.94
2023-02-19T21:12:19.803Z,100742.41
2023-02-19T21:14:46.592Z,100749.34
2023-02-19T21:17:12.967Z,100747.47
2023-02-19T21:19:39.392Z,100750.56
2023-02-19T21:22:06.171Z,100757.59
2023-02-19T21:24:35.132Z,100754.22
2023-02-19T21:27:01.560Z,100754.03
2023-02-19T21:29:28.078Z,100762.47
2023-02-19T21:31:56.333Z,100761.38
2023-02-19T21:34:25.366Z,100767.84
2023-02-19T21:36:52.172Z,100774.94
2023-02-19T21:39:21.706Z,100773.16
2023-02-19T21:41:48.802Z,100772.25
2023-02-19T21:44:15.633Z,100781.03
2023-02-19T21:46:42.281Z,100788.31
2023-02-19T21:49:09.066Z,100774.69
2023-02-19T21:51:38.902Z,100774.13
2023-02-19T21:54:05.441Z,100776.19
2023-02-19T21:56:35.801Z,100777.38
2023-02-19T21:59:02.580Z,100770.09
2023-02-19T22:01:34.911Z,100767.66
2023-02-19T22:04:01.487Z,100764.09
2023-02-19T22:06:30.517Z,100771.69
2023-02-19T22:08:57.959Z,100758.56
2023-02-19T22:11:24.369Z,100758.56
2023-02-19T22:13:50.985Z,100767.91
2023-02-19T22:16:17.767Z,100758.00
2023-02-19T22:18:55.162Z,100755.97
2023-02-19T22:21:24.651Z,100754.81
2023-02-19T22:23:52.748Z,100750.50
2023-02-19T22:26:37.787Z,100742.66
2023-02-19T22:29:07.163Z,100733.28
2023-02-19T22:31:34.727Z,100740.22
2023-02-19T22:34:01.359Z,100729.91
2023-02-19T22:36:33.257Z,100730.84
2023-02-19T22:39:00.334Z,100732.72
2023-02-19T22:41:27.179Z,100731.03
2023-02-19T22:43:58.450Z,100725.91
2023-02-19T22:46:27.128Z,100725.50
2023-02-19T22:48:53.499Z,100728.41
2023-02-19T22:51:22.445Z,100729.56
2023-02-19T22:53:54.708Z,100738.34
2023-02-19T22:56:24.465Z,100733.19
2023-02-19T22:58:51.144Z,100733.03
2023-02-19T23:01:18.801Z,100724.09
2023-02-19T23:03:45.915Z,100716.97
2023-02-19T23:06:12.547Z,100721.69
2023-02-19T23:08:39.085Z,100712.94
2023-02-19T23:11:05.429Z,100707.88
2023-02-19T23:13:31.791Z,100706.41
2023-02-19T23:15:59.501Z,100698.59
2023-02-19T23:18:27.004Z,100696.09
2023-02-19T23:20:53.359Z,100696.56
2023-02-19T23:23:19.773Z,100698.97
2023-02-19T23:25:46.151Z,100694.50
2023-02-19T23:28:12.548Z,100682.84
2023-02-19T23:30:39.122Z,100685.94
2023-02-19T23:33:05.538Z,100677.44
2023-02-19T23:35:31.964Z,100682.47
2023-02-19T23:37:58.392Z,100686.06
2023-02-19T23:40:24.743Z,100690.66
2023-02-19T23:42:51.075Z,100692.63
2023-02-19T23:45:17.496Z,100702.19
2023-02-19T23:47:43.864Z,100689.44
2023-02-19T23:50:10.270Z,100675.63
2023-02-19T23:52:36.691Z,100678.56
2023-02-19T23:55:03.064Z,100664.47
2023-02-19T23:57:29.398Z,100657.00
2023-02-19T23:59:56.099Z,100657.94
